createdAt,value
2023-05-07T07:16:32.838Z,4.90
2023-05-07T07:21:34.184Z,4.65
2023-05-07T07:26:31.025Z,4.38
2023-05-07T07:36:29.472Z,4.20
2023-05-07T07:41:35.313Z,4.35
2023-05-07T07:46:31.896Z,4.30
2023-05-07T07:51:28.595Z,4.32
2023-05-07T08:01:21.614Z,4.05
2023-05-07T08:21:54.534Z,3.97
2023-05-07T08:26:51.359Z,4.60
2023-05-07T08:31:48.885Z,4.78
2023-05-07T08:36:47.958Z,4.40
2023-05-07T08:41:46.916Z,4.88
2023-05-07T08:46:44.607Z,4.57
2023-05-07T09:03:15.828Z,4.57
2023-05-07T09:08:26.773Z,4.13
2023-05-07T09:13:38.115Z,3.88
2023-05-07T09:55:07.556Z,3.50
2023-05-07T10:00:16.346Z,3.72
2023-05-07T10:05:14.219Z,3.92
2023-05-07T10:10:17.195Z,3.70
2023-05-07T10:15:15.594Z,4.03
2023-05-07T11:08:20.282Z,2.40
2023-05-07T11:18:17.557Z,2.70
2023-05-07T11:29:52.488Z,2.50
2023-05-07T11:45:25.282Z,2.63
2023-05-07T11:50:23.028Z,2.28
2023-05-07T12:00:31.867Z,2.50
2023-05-07T12:05:29.802Z,2.67
2023-05-07T12:17:06.236Z,2.30
2023-05-07T12:22:05.689Z,1.85
2023-05-07T12:27:02.304Z,1.80
2023-05-07T12:32:00.360Z,1.73
2023-05-07T12:36:56.986Z,1.60
2023-05-07T12:46:52.216Z,1.90
2023-05-07T12:51:50.083Z,1.75
2023-05-07T12:56:46.575Z,1.83
2023-05-07T13:06:39.571Z,1.67
2023-05-07T13:16:38.739Z,1.90
2023-05-07T13:21:35.473Z,1.55
2023-05-07T13:26:32.464Z,1.60
2023-05-07T13:31:29.013Z,1.58
2023-05-07T13:41:22.520Z,1.73
2023-05-07T13:46:19.207Z,1.50
2023-05-07T13:51:15.871Z,1.60
2023-05-07T13:56:12.724Z,1.77
2023-05-07T14:01:09.302Z,1.42
2023-05-07T14:06:06.047Z,1.50
2023-05-07T14:11:05.482Z,1.55
2023-05-07T14:16:05.341Z,1.80
2023-05-07T14:21:01.944Z,1.50
2023-05-07T14:25:58.732Z,1.30
2023-05-07T14:30:55.712Z,1.38
2023-05-07T14:35:52.384Z,1.60
2023-05-07T14:40:49.003Z,1.60
2023-05-07T14:45:46.992Z,1.70
2023-05-07T14:50:44.672Z,1.40
2023-05-07T14:55:41.638Z,1.50
2023-05-07T15:00:39.010Z,1.50
2023-05-07T15:05:36.688Z,1.50
2023-05-07T15:10:41.169Z,1.70
2023-05-07T15:15:37.800Z,1.60
2023-05-07T15:21:01.272Z,1.60
2023-05-07T18:18:03.463Z,1.50
2023-05-07T18:23:00.564Z,1.50
2023-05-07T18:27:59.750Z,1.70
2023-05-07T18:32:56.593Z,1.63
2023-05-07T18:37:53.177Z,1.77
2023-05-07T18:42:50.085Z,1.60
2023-05-07T18:47:46.804Z,1.48
2023-05-07T18:52:44.426Z,1.65
2023-05-07T18:57:41.301Z,1.65
2023-05-07T19:02:38.645Z,1.40
2023-05-07T19:07:35.291Z,1.50
2023-05-07T19:12:31.815Z,1.60
2023-05-07T19:22:24.945Z,1.42
2023-05-07T19:27:21.490Z,1.42
2023-05-07T19:37:14.446Z,1.80
2023-05-07T19:47:09.357Z,1.70
2023-05-07T19:52:05.987Z,2.00
2023-05-07T20:02:02.162Z,2.05
2023-05-07T20:06:59.822Z,2.17
2023-05-07T20:11:57.087Z,2.20
2023-05-07T20:17:13.093Z,2.10
2023-05-07T20:28:21.279Z,1.73
2023-05-07T20:33:25.162Z,2.10
2023-05-07T20:39:13.012Z,2.67
2023-05-07T21:00:00.878Z,2.17
2023-05-07T21:11:09.534Z,2.20
2023-05-07T21:16:29.513Z,2.30
2023-05-07T21:38:22.746Z,2.00
2023-05-07T21:50:05.982Z,2.00
2023-05-07T21:55:14.190Z,2.20
2023-05-07T22:36:11.162Z,1.77
2023-05-07T22:41:16.910Z,2.03
2023-05-07T22:46:17.231Z,1.70
2023-05-07T22:51:18.089Z,1.88
2023-05-07T22:56:34.006Z,1.98
2023-05-07T23:01:33.261Z,1.95
2023-05-07T23:06:54.014Z,1.92
2023-05-07T23:23:55.757Z,2.08
2023-05-07T23:29:12.647Z,1.83
2023-05-07T23:40:03.465Z,1.98
2023-05-07T23:45:08.201Z,1.80
2023-05-07T23:50:19.187Z,2.10
2023-05-07T23:55:28.004Z,2.50
